Time;durP1;ratioP1;P1;durP2;ratioP2;P2;SDS_P1;SDS_P2;PMS_P1;PMS_P2;Temp;Humidity;BMP_temperature;BMP_pressure;BME280_temperature;BME280_humidity;BME280_pressure;Samples;Min_cycle;Max_cycle;Signal;HPM_P1;HPM_P2
2023/03/11 00:00:21;;;;;;;0.20;0.20;;;4.80;99.90;4.40;97837.00;;;;4972200;28;105124;-67
2023/03/11 00:02:50;;;;;;;0.53;0.43;;;4.70;99.90;4.20;97863.00;;;;4976892;28;87922;-67
2023/03/11 00:05:26;;;;;;;0.40;0.30;;;4.50;99.90;4.10;97885.00;;;;4978053;28;87836;-66
2023/03/11 00:07:52;;;;;;;0.63;0.40;;;4.40;99.90;3.90;97880.00;;;;4977211;28;87525;-67
2023/03/11 00:10:24;;;;;;;0.10;0.10;;;4.20;99.90;3.60;97895.00;;;;4974667;28;89086;-66
2023/03/11 00:12:50;;;;;;;0.40;0.40;;;4.00;99.90;3.40;97904.00;;;;4975863;28;87937;-66
2023/03/11 00:15:16;;;;;;;0.40;0.40;;;3.70;99.90;3.20;97898.00;;;;4972321;28;88938;-67
2023/03/11 00:17:42;;;;;;;0.20;0.20;;;3.50;99.90;3.00;97913.00;;;;4974210;28;88496;-68
2023/03/11 00:20:25;;;;;;;0.40;0.23;;;3.30;99.90;2.90;97904.00;;;;4974162;28;117754;-68
2023/03/11 00:22:51;;;;;;;0.60;0.60;;;3.10;99.90;2.70;97915.00;;;;4976761;28;88163;-68
2023/03/11 00:25:18;;;;;;;0.30;0.20;;;3.00;99.90;2.70;97912.00;;;;4972183;28;88108;-68
2023/03/11 00:27:44;;;;;;;0.63;0.63;;;2.90;99.90;2.50;97896.00;;;;4971606;28;99073;-68
2023/03/11 00:30:11;;;;;;;0.40;0.40;;;2.90;99.90;2.40;97899.00;;;;4973445;28;119473;-67
2023/03/11 00:32:37;;;;;;;0.50;0.50;;;2.70;99.90;2.30;97921.00;;;;4970203;28;105192;-68
2023/03/11 00:35:04;;;;;;;0.20;0.20;;;2.60;99.90;2.30;97913.00;;;;4972046;28;109844;-68
2023/03/11 00:37:39;;;;;;;0.87;0.50;;;2.60;99.90;2.20;97915.00;;;;4974197;27;97127;-68
2023/03/11 00:40:07;;;;;;;0.20;0.20;;;2.80;99.90;2.10;97912.00;;;;4975788;28;117933;-69
2023/03/11 00:42:33;;;;;;;0.60;0.53;;;2.40;99.90;2.00;97909.00;;;;4975283;28;88426;-69
2023/03/11 00:44:59;;;;;;;0.23;0.20;;;2.30;99.90;1.90;97913.00;;;;4973947;28;109996;-69
2023/03/11 00:47:24;;;;;;;0.33;0.33;;;2.30;99.90;1.80;97923.00;;;;4972862;28;109041;-69
2023/03/11 00:49:50;;;;;;;0.67;0.60;;;2.20;99.90;1.70;97926.00;;;;4970420;28;117283;-68
2023/03/11 00:52:16;;;;;;;0.53;0.53;;;2.10;99.90;1.60;97911.00;;;;4974459;28;119315;-69
2023/03/11 00:54:51;;;;;;;0.90;0.43;;;2.00;99.90;1.60;97918.00;;;;4974709;28;87557;-68
2023/03/11 00:57:16;;;;;;;0.30;0.30;;;1.90;99.90;1.50;97923.00;;;;4974609;28;109150;-68
2023/03/11 00:59:42;;;;;;;0.50;0.50;;;1.80;99.90;1.40;97928.00;;;;4973602;28;116796;-69
2023/03/11 01:02:07;;;;;;;0.33;0.33;;;1.70;99.90;1.40;97933.00;;;;4974176;27;116605;-67
2023/03/11 01:04:33;;;;;;;0.40;0.30;;;1.70;99.90;1.30;97932.00;;;;4973746;28;111483;-67
2023/03/11 01:06:59;;;;;;;0.30;0.30;;;1.60;99.90;1.20;97950.00;;;;4972745;28;97687;-65
2023/03/11 01:09:24;;;;;;;0.73;0.50;;;1.60;99.90;1.20;97954.00;;;;4970762;28;91340;-67
2023/03/11 01:11:50;;;;;;;0.30;0.30;;;1.50;99.90;1.20;97942.00;;;;4974644;28;118456;-67
2023/03/11 01:14:17;;;;;;;0.30;0.30;;;1.50;99.90;1.20;97958.00;;;;4976624;28;87446;-67
2023/03/11 01:16:42;;;;;;;0.40;0.37;;;1.50;99.90;1.20;97963.00;;;;4969929;28;87636;-71
2023/03/11 01:19:08;;;;;;;0.30;0.30;;;2.00;99.90;1.20;97962.00;;;;4973291;28;116667;-67
2023/03/11 01:21:34;;;;;;;1.30;0.47;;;1.50;99.90;1.30;97957.00;;;;4972388;28;116109;-68
2023/03/11 01:23:59;;;;;;;0.93;0.30;;;1.50;99.90;1.40;97988.00;;;;4990660;27;109659;-69
2023/03/11 01:26:25;;;;;;;1.03;0.47;;;1.60;99.90;1.40;98004.00;;;;4973547;27;87789;-68
2023/03/11 01:28:51;;;;;;;0.10;0.10;;;1.60;99.90;1.40;97986.00;;;;4985960;27;116271;-69
2023/03/11 01:31:16;;;;;;;0.30;0.20;;;1.70;99.90;1.40;98024.00;;;;4971254;28;117614;-66
2023/03/11 01:33:42;;;;;;;0.90;0.60;;;1.70;99.90;1.30;98029.00;;;;4974157;28;87881;-66
2023/03/11 01:36:08;;;;;;;0.33;0.33;;;1.60;99.90;1.30;98022.00;;;;4985262;27;88094;-66
2023/03/11 01:38:33;;;;;;;0.30;0.20;;;1.60;99.90;1.20;98038.00;;;;4971134;28;109615;-67
2023/03/11 01:41:00;;;;;;;0.40;0.33;;;1.70;99.90;1.20;98050.00;;;;4972798;28;87723;-66
2023/03/11 01:43:43;;;;;;;0.70;0.50;;;1.50;99.90;1.10;98046.00;;;;4972561;28;109324;-66
2023/03/11 01:46:34;;;;;;;0.47;0.47;;;1.50;99.90;1.10;98048.00;;;;4973534;28;87207;-65
2023/03/11 01:49:02;;;;;;;0.70;0.43;;;1.40;99.90;1.10;98070.00;;;;4985941;27;88498;-66
2023/03/11 01:51:40;;;;;;;0.53;0.47;;;1.40;99.90;1.00;98065.00;;;;4973129;28;88482;-65
2023/03/11 01:54:18;;;;;;;0.87;0.57;;;1.40;99.90;1.00;98090.00;;;;4968524;28;88866;-67
2023/03/11 01:56:45;;;;;;;0.60;0.60;;;1.30;99.90;1.00;98085.00;;;;4973967;28;90050;-67
2023/03/11 01:59:18;;;;;;;0.97;0.77;;;1.30;99.90;1.00;98090.00;;;;4968616;28;118718;-67
2023/03/11 02:01:55;;;;;;;0.73;0.73;;;1.40;99.90;1.00;98104.00;;;;4981803;27;88185;-66
2023/03/11 02:04:21;;;;;;;0.83;0.83;;;1.30;99.90;1.10;98112.00;;;;4971802;28;92129;-66
2023/03/11 02:06:46;;;;;;;0.63;0.53;;;1.30;99.90;1.10;98103.00;;;;4973417;28;108421;-67
2023/03/11 02:09:12;;;;;;;0.70;0.60;;;1.30;99.90;1.10;98119.00;;;;4969484;28;117097;-65
2023/03/11 02:11:38;;;;;;;1.27;1.17;;;1.30;99.90;1.10;98131.00;;;;4972323;28;115684;-66
2023/03/11 02:14:07;;;;;;;0.90;0.70;;;1.30;99.90;1.10;98132.00;;;;4970862;28;110538;-66
2023/03/11 02:16:33;;;;;;;0.60;0.60;;;1.40;99.90;1.10;98137.00;;;;4987129;27;87916;-66
2023/03/11 02:19:14;;;;;;;0.50;0.50;;;1.40;99.90;1.10;98146.00;;;;4973088;28;89959;-67
2023/03/11 02:21:40;;;;;;;1.33;0.63;;;1.40;99.90;1.10;98147.00;;;;4967617;28;88176;-68
2023/03/11 02:24:45;;;;;;;0.90;0.90;;;1.40;99.90;1.10;98179.00;;;;4974002;28;110752;-66
2023/03/11 02:27:15;;;;;;;1.93;0.97;;;1.40;99.90;1.00;98161.00;;;;4958476;28;87853;-66
2023/03/11 02:29:43;;;;;;;1.10;0.87;;;1.30;99.90;1.00;98159.00;;;;4984260;27;87808;-67
2023/03/11 02:32:09;;;;;;;0.70;0.50;;;1.30;99.90;1.00;98168.00;;;;4972840;28;87943;-69
2023/03/11 02:34:38;;;;;;;0.93;0.87;;;1.30;99.90;1.00;98189.00;;;;4972685;28;101859;-69
2023/03/11 02:37:07;;;;;;;1.40;0.63;;;1.30;99.90;1.00;98208.00;;;;4972700;28;87103;-68
2023/03/11 02:39:46;;;;;;;1.27;0.70;;;2.30;99.90;0.90;98198.00;;;;4973725;28;88299;-68
2023/03/11 02:42:25;;;;;;;0.73;0.70;;;1.20;99.90;0.90;98216.00;;;;4969524;28;88785;-68
2023/03/11 02:45:13;;;;;;;0.63;0.57;;;1.20;99.90;0.80;98220.00;;;;4970766;28;100869;-68
2023/03/11 02:47:40;;;;;;;0.57;0.50;;;1.20;99.90;0.80;98222.00;;;;4986726;27;87806;-68
2023/03/11 02:50:08;;;;;;;0.80;0.70;;;1.10;99.90;0.80;98234.00;;;;4969424;28;117778;-66
2023/03/11 02:52:35;;;;;;;0.80;0.67;;;1.10;99.90;0.80;98244.00;;;;4984407;27;89972;-66
2023/03/11 02:55:01;;;;;;;0.23;0.20;;;1.10;99.90;0.80;98256.00;;;;4973510;28;87947;-66
2023/03/11 02:57:27;;;;;;;0.70;0.43;;;1.10;99.90;0.80;98259.00;;;;4970273;28;87838;-66
2023/03/11 02:59:53;;;;;;;1.20;0.60;;;1.00;99.90;0.80;98256.00;;;;4971312;28;117236;-67
2023/03/11 03:02:19;;;;;;;0.70;0.60;;;1.10;99.90;0.70;98263.00;;;;4971408;28;118457;-67
2023/03/11 03:04:44;;;;;;;0.13;0.13;;;1.00;99.90;0.70;98280.00;;;;4971181;28;87827;-68
2023/03/11 03:07:10;;;;;;;0.90;0.70;;;1.00;99.90;0.70;98297.00;;;;4968293;28;106979;-69
2023/03/11 03:09:37;;;;;;;0.47;0.40;;;1.00;99.90;0.70;98296.00;;;;4972137;28;116892;-68
2023/03/11 03:12:04;;;;;;;0.27;0.27;;;0.90;99.90;0.70;98312.00;;;;4988275;27;101328;-68
2023/03/11 03:14:30;;;;;;;0.30;0.20;;;1.00;99.90;0.70;98320.00;;;;4974568;28;87582;-71
2023/03/11 03:16:56;;;;;;;2.00;0.40;;;1.00;99.90;0.70;98340.00;;;;4954895;28;87908;-72
2023/03/11 03:19:37;;;;;;;0.30;0.30;;;0.90;99.90;0.70;98333.00;;;;4972738;28;88251;-68
2023/03/11 03:22:02;;;;;;;0.50;0.30;;;1.10;99.90;0.70;98340.00;;;;4971061;28;116691;-69
2023/03/11 03:24:28;;;;;;;0.30;0.30;;;1.00;99.90;0.70;98356.00;;;;4974287;28;89982;-69
2023/03/11 03:26:54;;;;;;;0.10;0.10;;;1.00;99.90;0.70;98372.00;;;;4971536;28;108798;-73
2023/03/11 03:29:19;;;;;;;0.10;0.10;;;0.20;99.90;0.70;98369.00;;;;4972625;28;116975;-71
2023/03/11 03:31:45;;;;;;;0.40;0.40;;;1.00;99.90;0.70;98382.00;;;;4972600;28;117570;-72
2023/03/11 03:34:11;;;;;;;0.40;0.30;;;1.10;99.90;0.70;98405.00;;;;4968632;28;108889;-72
2023/03/11 03:36:37;;;;;;;0.17;0.17;;;1.00;99.90;0.80;98401.00;;;;4971368;28;109718;-72
2023/03/11 03:39:03;;;;;;;0.47;0.47;;;0.90;99.90;0.70;98417.00;;;;4973850;28;117991;-74
2023/03/11 03:41:29;;;;;;;0.77;0.20;;;1.00;99.90;0.70;98425.00;;;;4968681;28;88108;-75
2023/03/11 03:43:55;;;;;;;0.07;0.07;;;2.10;99.90;0.70;98431.00;;;;4970660;28;110303;-78
2023/03/11 03:46:29;;;;;;;0.73;0.40;;;1.00;99.90;0.70;98440.00;;;;4975173;28;87823;-76
2023/03/11 03:48:55;;;;;;;0.20;0.20;;;1.00;99.90;0.70;98465.00;;;;4970214;28;117539;-75
2023/03/11 03:51:21;;;;;;;0.20;0.20;;;1.70;99.90;0.70;98491.00;;;;4969160;28;117465;-77
2023/03/11 03:53:46;;;;;;;0.30;0.30;;;0.90;99.90;0.70;98490.00;;;;4969701;28;87861;-76
2023/03/11 03:56:15;;;;;;;0.10;0.10;;;0.90;99.90;0.70;98504.00;;;;4987733;27;87844;-77
2023/03/11 03:58:41;;;;;;;0.40;0.30;;;1.30;99.90;0.70;98502.00;;;;4970171;28;89599;-76
2023/03/11 04:01:08;;;;;;;0.40;0.27;;;1.00;99.90;0.70;98521.00;;;;4985334;27;95036;-74
2023/03/11 04:03:34;;;;;;;0.20;0.20;;;1.00;99.90;0.70;98530.00;;;;4973240;28;88031;-74
2023/03/11 04:06:16;;;;;;;0.50;0.50;;;1.00;99.90;0.70;98529.00;;;;4972791;28;87867;-73
2023/03/11 04:08:42;;;;;;;0.33;0.30;;;1.10;99.90;0.70;98539.00;;;;4986003;27;88801;-68
2023/03/11 04:11:08;;;;;;;0.27;0.20;;;0.90;99.90;0.70;98546.00;;;;4973240;28;117958;-67
2023/03/11 04:13:35;;;;;;;0.40;0.40;;;1.00;99.90;0.70;98564.00;;;;4972591;28;109869;-65
2023/03/11 04:16:06;;;;;;;0.40;0.40;;;1.00;99.90;0.70;98573.00;;;;4975563;28;88699;-65
2023/03/11 04:18:33;;;;;;;0.60;0.43;;;1.00;99.90;0.70;98575.00;;;;4972378;28;88532;-64
2023/03/11 04:20:59;;;;;;;0.90;0.60;;;1.00;99.90;0.70;98594.00;;;;4970960;28;109103;-64
2023/03/11 04:23:25;;;;;;;0.57;0.57;;;0.90;99.90;0.70;98588.00;;;;4971036;28;89001;-63
2023/03/11 04:26:00;;;;;;;0.80;0.70;;;1.00;99.90;0.70;98597.00;;;;4969963;28;108600;-63
2023/03/11 04:28:26;;;;;;;0.70;0.63;;;1.00;99.90;0.60;98603.00;;;;4969715;28;117692;-62
2023/03/11 04:30:51;;;;;;;0.80;0.60;;;1.00;99.90;0.60;98604.00;;;;4972470;28;117488;-62
2023/03/11 04:33:17;;;;;;;0.50;0.43;;;0.90;99.90;0.60;98613.00;;;;4970908;28;110905;-62
2023/03/11 04:35:43;;;;;;;1.27;0.80;;;1.00;99.90;0.70;98628.00;;;;4972281;28;89180;-62
2023/03/11 04:38:08;;;;;;;1.03;0.93;;;1.10;99.90;0.60;98639.00;;;;4972362;28;117053;-62
2023/03/11 04:40:37;;;;;;;1.10;0.97;;;1.00;99.90;0.70;98644.00;;;;4974765;28;117529;-62
2023/03/11 04:43:03;;;;;;;1.90;1.10;;;0.90;99.90;0.60;98648.00;;;;4974361;28;88372;-62
2023/03/11 04:45:28;;;;;;;2.30;1.27;;;1.00;99.90;0.70;98655.00;;;;4974969;28;102882;-63
2023/03/11 04:47:54;;;;;;;1.20;1.00;;;1.10;99.90;0.70;98649.00;;;;4971599;28;116107;-61
2023/03/11 04:50:20;;;;;;;0.80;0.67;;;1.00;99.90;0.70;98656.00;;;;4975276;28;117287;-60
2023/03/11 04:52:45;;;;;;;2.60;0.80;;;0.90;99.90;0.70;98668.00;;;;4974400;28;88769;-62
2023/03/11 04:55:12;;;;;;;1.57;1.37;;;1.00;99.90;0.70;98671.00;;;;4972576;28;95993;-61
2023/03/11 04:57:39;;;;;;;1.30;1.03;;;1.90;99.90;0.70;98678.00;;;;4974710;28;88956;-61
2023/03/11 05:00:09;;;;;;;1.07;1.00;;;1.00;99.90;0.70;98687.00;;;;4970887;28;91498;-61
2023/03/11 05:02:34;;;;;;;0.80;0.60;;;1.00;99.90;0.80;98698.00;;;;4976190;28;88099;-62
2023/03/11 05:05:00;;;;;;;0.97;0.90;;;1.00;99.90;0.80;98696.00;;;;4975896;28;108607;-61
2023/03/11 05:07:26;;;;;;;1.33;1.17;;;1.10;99.90;0.70;98708.00;;;;4972780;27;89313;-63
2023/03/11 05:09:52;;;;;;;3.20;1.47;;;1.00;99.90;0.70;98709.00;;;;4975184;28;117450;-63
2023/03/11 05:12:23;;;;;;;1.00;0.80;;;1.10;99.90;0.80;98720.00;;;;4970950;28;110421;-63
2023/03/11 05:14:49;;;;;;;1.90;1.37;;;1.10;99.90;0.70;98728.00;;;;4973919;28;107878;-62
2023/03/11 05:17:17;;;;;;;0.80;0.80;;;1.00;99.90;0.80;98730.00;;;;4973578;28;116050;-63
2023/03/11 05:19:43;;;;;;;1.33;1.10;;;1.10;99.90;0.80;98733.00;;;;4975690;28;87805;-63
2023/03/11 05:22:08;;;;;;;1.30;1.20;;;1.00;99.90;0.70;98746.00;;;;4973808;28;109165;-63
2023/03/11 05:24:35;;;;;;;2.23;1.37;;;1.00;99.90;0.70;98764.00;;;;4972227;28;109181;-62
2023/03/11 05:27:01;;;;;;;1.53;1.40;;;0.90;99.90;0.70;98770.00;;;;4973237;28;89196;-62
2023/03/11 05:29:26;;;;;;;1.70;1.27;;;1.00;99.90;0.70;98780.00;;;;4974948;28;88909;-62
2023/03/11 05:31:52;;;;;;;1.93;1.13;;;1.00;99.90;0.70;98791.00;;;;4971452;28;110536;-63
2023/03/11 05:34:18;;;;;;;0.87;0.67;;;1.00;99.90;0.70;98777.00;;;;4970390;28;109336;-63
2023/03/11 05:36:44;;;;;;;1.23;1.03;;;1.00;99.90;0.70;98805.00;;;;4973407;28;89035;-63
2023/03/11 05:39:10;;;;;;;0.63;0.63;;;0.90;99.90;0.70;98801.00;;;;4973420;28;116288;-63
2023/03/11 05:41:36;;;;;;;0.77;0.77;;;1.00;99.90;0.70;98803.00;;;;4973692;28;110564;-63
2023/03/11 05:44:02;;;;;;;1.30;1.20;;;1.00;99.90;0.70;98810.00;;;;4973546;28;108603;-64
2023/03/11 05:46:28;;;;;;;1.27;1.13;;;0.90;99.90;0.70;98815.00;;;;4969009;27;108691;-59
2023/03/11 05:48:53;;;;;;;3.33;1.20;;;1.10;99.90;0.70;98830.00;;;;4973814;28;88444;-62
2023/03/11 05:51:19;;;;;;;1.30;0.87;;;1.10;99.90;0.80;98829.00;;;;4974768;28;108715;-62
2023/03/11 05:53:47;;;;;;;1.13;1.00;;;1.00;99.90;0.70;98850.00;;;;4987090;28;87037;-64
2023/03/11 05:56:18;;;;;;;0.80;0.80;;;1.10;99.90;0.70;98846.00;;;;4976045;28;87914;-63
2023/03/11 05:58:45;;;;;;;1.93;1.43;;;2.10;99.90;0.70;98865.00;;;;4974688;28;89003;-62
2023/03/11 06:01:14;;;;;;;1.20;0.93;;;1.70;99.90;0.70;98857.00;;;;4987089;28;110582;-62
2023/03/11 06:03:40;;;;;;;1.40;1.27;;;1.00;99.90;0.70;98866.00;;;;4970766;28;87797;-64
2023/03/11 06:06:09;;;;;;;1.60;1.47;;;1.00;99.90;0.70;98878.00;;;;4971993;28;88884;-63
2023/03/11 06:08:35;;;;;;;1.53;1.30;;;1.10;99.90;0.70;98894.00;;;;4970891;28;101920;-63
2023/03/11 06:11:06;;;;;;;3.33;1.70;;;1.80;99.90;0.70;98887.00;;;;4968193;28;110975;-67
2023/03/11 06:13:33;;;;;;;0.83;0.83;;;1.00;99.90;0.80;98901.00;;;;4965842;28;88054;-67
2023/03/11 06:15:59;;;;;;;1.97;1.73;;;1.10;99.90;0.80;98910.00;;;;4968973;28;110862;-67
2023/03/11 06:18:25;;;;;;;0.93;0.83;;;2.20;99.90;0.80;98908.00;;;;4967936;28;111646;-68
2023/03/11 06:20:52;;;;;;;2.00;1.63;;;1.10;99.90;0.80;98905.00;;;;4968350;28;87933;-69
2023/03/11 06:23:22;;;;;;;2.27;1.40;;;1.10;99.90;0.80;98922.00;;;;4969910;28;88041;-70
2023/03/11 06:26:03;;;;;;;1.83;1.50;;;1.10;99.90;0.80;98931.00;;;;4970421;27;105670;-70
2023/03/11 06:28:29;;;;;;;2.00;1.30;;;1.20;99.90;0.80;98941.00;;;;4965732;28;110535;-75
2023/03/11 06:30:57;;;;;;;1.77;1.43;;;1.10;99.90;0.80;98956.00;;;;4966063;28;106311;-75
2023/03/11 06:33:23;;;;;;;2.30;1.70;;;1.10;99.90;0.80;98961.00;;;;4967995;28;88238;-74
2023/03/11 06:36:01;;;;;;;3.20;2.13;;;1.80;99.90;0.90;98963.00;;;;4968321;28;88616;-75
2023/03/11 06:38:27;;;;;;;3.43;2.10;;;1.20;99.90;0.90;98969.00;;;;4967611;28;110191;-75
2023/03/11 06:40:52;;;;;;;1.33;1.07;;;1.10;99.90;0.90;98996.00;;;;4965244;28;110749;-73
2023/03/11 06:43:18;;;;;;;2.13;1.60;;;1.20;99.90;1.00;98977.00;;;;4972284;28;87355;-73
2023/03/11 06:45:45;;;;;;;1.73;1.57;;;2.20;99.90;1.00;98999.00;;;;4966646;28;88919;-70
2023/03/11 06:48:10;;;;;;;1.40;1.20;;;2.20;99.90;1.00;99003.00;;;;4967061;27;88514;-69
2023/03/11 06:50:36;;;;;;;2.90;1.67;;;1.30;99.90;1.00;99014.00;;;;4967863;28;110350;-70
2023/03/11 06:53:05;;;;;;;3.40;1.53;;;1.30;99.90;1.00;99017.00;;;;4968858;28;89466;-69
2023/03/11 06:55:31;;;;;;;1.03;1.00;;;1.30;99.90;1.00;99034.00;;;;4966400;28;87948;-71
2023/03/11 06:57:56;;;;;;;2.47;1.93;;;1.30;99.90;1.00;99037.00;;;;4969785;28;87866;-70
2023/03/11 07:00:22;;;;;;;2.53;2.10;;;1.30;99.90;1.00;99051.00;;;;4967717;28;108886;-70
2023/03/11 07:02:48;;;;;;;3.63;2.13;;;1.20;99.90;1.10;99057.00;;;;4967452;28;87843;-70
2023/03/11 07:05:14;;;;;;;4.30;1.97;;;1.30;99.90;1.00;99062.00;;;;4966087;28;117065;-70
2023/03/11 07:07:39;;;;;;;4.10;2.80;;;1.30;99.90;1.00;99074.00;;;;4967985;28;116776;-69
2023/03/11 07:10:06;;;;;;;3.47;1.83;;;1.30;99.90;1.00;99069.00;;;;4968783;28;108735;-69
2023/03/11 07:12:31;;;;;;;2.90;2.20;;;1.30;99.90;1.10;99075.00;;;;4967201;28;87936;-69
2023/03/11 07:14:58;;;;;;;2.03;1.83;;;1.30;99.90;1.10;99093.00;;;;4965452;28;118303;-69
2023/03/11 07:17:25;;;;;;;1.50;1.40;;;2.20;99.90;1.10;99081.00;;;;4965862;28;118829;-68
2023/03/11 07:19:51;;;;;;;2.43;2.20;;;1.40;99.90;1.20;99093.00;;;;4969381;28;88014;-69
2023/03/11 07:22:17;;;;;;;4.37;2.23;;;1.40;99.90;1.20;99110.00;;;;4965903;28;89208;-69
2023/03/11 07:24:47;;;;;;;4.97;2.67;;;1.40;99.90;1.20;99115.00;;;;4968261;28;88882;-69
2023/03/11 07:27:13;;;;;;;3.93;1.97;;;1.40;99.90;1.20;99114.00;;;;4967847;27;104447;-66
2023/03/11 07:29:39;;;;;;;3.73;2.67;;;1.40;99.90;1.20;99122.00;;;;4968804;28;87764;-65
2023/03/11 07:32:08;;;;;;;4.43;2.43;;;1.50;99.90;1.20;99124.00;;;;4967508;28;95307;-66
2023/03/11 07:34:34;;;;;;;5.23;2.83;;;1.50;99.90;1.20;99128.00;;;;4964211;28;116801;-64
2023/03/11 07:37:00;;;;;;;4.07;2.37;;;1.60;99.90;1.10;99135.00;;;;4965733;28;116951;-64
2023/03/11 07:39:26;;;;;;;3.80;2.27;;;1.40;99.90;1.20;99142.00;;;;4969433;28;109886;-64
2023/03/11 07:41:51;;;;;;;3.47;3.00;;;1.40;99.90;1.20;99150.00;;;;4967870;28;101497;-64
2023/03/11 07:44:17;;;;;;;3.97;2.67;;;1.40;99.90;1.20;99155.00;;;;4970272;28;111493;-64
2023/03/11 07:46:44;;;;;;;4.23;3.27;;;1.60;99.90;1.20;99157.00;;;;4969015;28;88042;-64
2023/03/11 07:49:10;;;;;;;2.57;2.30;;;1.50;99.90;1.20;99165.00;;;;4965937;28;108946;-64
2023/03/11 07:51:39;;;;;;;3.87;3.07;;;1.50;99.90;1.20;99168.00;;;;4969581;28;107309;-63
2023/03/11 07:54:05;;;;;;;3.63;3.27;;;1.50;99.90;1.20;99175.00;;;;4969527;28;88927;-63
2023/03/11 07:56:33;;;;;;;3.53;2.90;;;1.50;99.90;1.30;99171.00;;;;4969238;28;116856;-63
2023/03/11 07:59:00;;;;;;;4.87;2.63;;;1.50;99.90;1.30;99188.00;;;;4969217;28;87936;-63
2023/03/11 08:01:34;;;;;;;3.43;2.80;;;1.60;99.90;1.30;99198.00;;;;4967576;28;87914;-64
2023/03/11 08:04:03;;;;;;;4.23;3.70;;;1.50;99.90;1.20;99208.00;;;;4967776;28;89016;-63
2023/03/11 08:06:32;;;;;;;4.73;4.23;;;1.50;99.90;1.30;99204.00;;;;4969359;28;89432;-63
2023/03/11 08:09:04;;;;;;;4.60;3.20;;;1.50;99.90;1.30;99216.00;;;;4970705;28;87689;-63
2023/03/11 08:11:31;;;;;;;2.73;2.53;;;1.60;99.90;1.30;99215.00;;;;4967491;28;87832;-64
2023/03/11 08:13:57;;;;;;;7.50;3.17;;;1.50;99.90;1.30;99220.00;;;;4972019;28;87855;-62
2023/03/11 08:16:23;;;;;;;4.17;3.63;;;1.60;99.90;1.30;99215.00;;;;4971229;28;116672;-63
2023/03/11 08:18:50;;;;;;;3.53;3.23;;;1.60;99.90;1.30;99230.00;;;;4969785;28;110217;-63
2023/03/11 08:21:23;;;;;;;3.20;2.83;;;1.60;99.90;1.30;99239.00;;;;4973457;28;87786;-63
2023/03/11 08:23:49;;;;;;;4.90;4.00;;;1.60;99.90;1.30;99248.00;;;;4970937;28;89091;-65
2023/03/11 08:26:18;;;;;;;5.83;3.80;;;1.10;99.90;1.30;99251.00;;;;4966725;28;98604;-64
2023/03/11 08:28:45;;;;;;;5.37;3.53;;;1.60;99.90;1.30;99267.00;;;;4970606;28;88758;-64
2023/03/11 08:31:21;;;;;;;4.97;4.13;;;1.60;99.90;1.30;99255.00;;;;4972393;28;87974;-64
2023/03/11 08:33:49;;;;;;;6.90;3.93;;;1.70;99.90;1.40;99280.00;;;;4975461;28;87698;-64
2023/03/11 08:36:15;;;;;;;4.27;2.93;;;1.50;99.90;1.40;99280.00;;;;4972998;28;87842;-63
2023/03/11 08:38:40;;;;;;;6.33;3.40;;;1.60;99.90;1.40;99280.00;;;;4967868;28;98296;-63
2023/03/11 08:41:06;;;;;;;7.23;3.70;;;1.80;99.90;1.40;99287.00;;;;4967030;28;102943;-62
2023/03/11 08:43:32;;;;;;;6.90;4.70;;;1.70;99.90;1.40;99289.00;;;;4968835;27;88005;-63
2023/03/11 08:46:00;;;;;;;6.53;4.13;;;1.50;99.90;1.40;99294.00;;;;4970721;28;88402;-61
2023/03/11 08:48:27;;;;;;;6.00;4.07;;;1.70;99.90;1.40;99305.00;;;;4971647;28;88239;-63
2023/03/11 08:50:52;;;;;;;7.83;4.67;;;1.60;99.90;1.60;99312.00;;;;4974413;28;91907;-64
2023/03/11 08:53:18;;;;;;;6.60;4.53;;;1.80;99.90;1.70;99314.00;;;;4968472;28;89904;-64
2023/03/11 08:55:44;;;;;;;7.97;4.30;;;1.90;99.90;1.80;99321.00;;;;4969344;28;118153;-64
2023/03/11 08:58:10;;;;;;;3.37;3.07;;;2.80;99.90;1.80;99329.00;;;;4974033;28;111291;-66
2023/03/11 09:00:36;;;;;;;4.93;3.70;;;2.00;99.90;1.80;99327.00;;;;4972208;28;88046;-68
2023/03/11 09:03:01;;;;;;;6.30;3.63;;;2.10;99.90;2.00;99340.00;;;;4969749;28;119306;-74
2023/03/11 09:05:27;;;;;;;9.80;4.40;;;2.10;99.90;2.20;99333.00;;;;4949358;28;117252;-81
2023/03/11 09:07:53;;;;;;;5.73;3.70;;;1.90;99.90;2.30;99329.00;;;;4968446;28;110245;-73
2023/03/11 09:10:19;;;;;;;5.93;4.17;;;2.50;99.90;2.30;99339.00;;;;4971589;28;108598;-73
2023/03/11 09:12:44;;;;;;;6.53;4.30;;;3.50;99.90;2.40;99354.00;;;;4950770;28;90320;-67
2023/03/11 09:15:10;;;;;;;4.17;3.60;;;2.60;99.90;2.40;99348.00;;;;4971860;28;117441;-67
2023/03/11 09:17:36;;;;;;;6.17;3.50;;;2.50;99.90;2.40;99357.00;;;;4970712;27;109595;-68
2023/03/11 09:20:03;;;;;;;5.00;4.27;;;3.50;99.90;2.50;99360.00;;;;4966619;27;108678;-67
2023/03/11 09:22:29;;;;;;;6.03;3.87;;;2.70;99.90;2.50;99368.00;;;;4969683;28;96733;-64
2023/03/11 09:24:56;;;;;;;4.10;2.93;;;2.70;99.90;2.40;99371.00;;;;4966743;27;118186;-66
2023/03/11 09:27:22;;;;;;;6.43;3.90;;;2.70;99.90;2.40;99382.00;;;;4969225;28;88228;-66
2023/03/11 09:29:48;;;;;;;5.63;3.50;;;2.70;99.90;2.40;99384.00;;;;4971372;28;106084;-67
2023/03/11 09:32:14;;;;;;;5.70;2.97;;;2.60;99.90;2.50;99381.00;;;;4966072;28;88844;-65
2023/03/11 09:34:40;;;;;;;4.93;3.60;;;2.60;99.90;2.50;99390.00;;;;4968883;28;88760;-67
2023/03/11 09:37:06;;;;;;;4.17;2.90;;;2.70;99.90;2.50;99395.00;;;;4971641;28;109146;-68
2023/03/11 09:39:32;;;;;;;4.83;3.23;;;2.70;99.90;2.50;99393.00;;;;4969191;28;91056;-66
2023/03/11 09:42:21;;;;;;;3.83;3.43;;;2.70;99.90;2.50;99399.00;;;;4968431;28;118145;-65
2023/03/11 09:45:02;;;;;;;4.10;3.33;;;2.70;99.90;2.40;99409.00;;;;4987594;27;88674;-69
2023/03/11 09:48:10;;;;;;;5.10;3.63;;;2.80;99.90;2.40;99408.00;;;;4983314;27;87992;-68
2023/03/11 09:50:52;;;;;;;3.50;2.47;;;2.60;99.90;2.40;99426.00;;;;4971307;28;88258;-68
2023/03/11 09:53:26;;;;;;;5.90;3.50;;;2.60;99.90;2.60;99429.00;;;;4962953;28;88092;-69
2023/03/11 09:55:55;;;;;;;4.77;3.53;;;2.70;99.90;2.80;99430.00;;;;4961137;27;110691;-69
2023/03/11 09:58:46;;;;;;;5.17;3.13;;;2.90;99.90;2.90;99432.00;;;;4968460;28;88095;-65
2023/03/11 10:01:38;;;;;;;4.20;2.77;;;3.10;99.90;3.10;99437.00;;;;4969812;28;87183;-68
2023/03/11 10:04:14;;;;;;;3.80;2.90;;;3.30;99.90;3.30;99442.00;;;;4968056;28;108122;-65
2023/03/11 10:06:44;;;;;;;4.67;3.10;;;3.50;99.90;3.50;99437.00;;;;4969572;28;110589;-69
2023/03/11 10:09:52;;;;;;;4.37;3.40;;;3.50;99.90;3.50;99456.00;;;;4966635;28;88892;-69
2023/03/11 10:13:02;;;;;;;3.13;2.53;;;3.70;99.90;3.50;99458.00;;;;4958864;28;88082;-69
2023/03/11 10:15:55;;;;;;;4.93;2.70;;;3.80;99.90;3.40;99464.00;;;;4962942;28;109952;-68
2023/03/11 10:18:35;;;;;;;4.33;2.93;;;3.70;99.90;3.40;99468.00;;;;4963796;28;87915;-69
2023/03/11 10:21:19;;;;;;;4.67;3.20;;;3.50;99.90;3.40;99475.00;;;;4969921;28;88257;-71
2023/03/11 10:24:13;;;;;;;4.57;3.07;;;3.50;99.90;3.30;99476.00;;;;4964973;28;87963;-71
2023/03/11 10:26:48;;;;;;;7.67;4.77;;;3.90;99.90;3.20;99471.00;;;;4968657;28;88120;-69
2023/03/11 10:29:26;;;;;;;6.13;3.27;;;3.50;99.90;3.10;99483.00;;;;4983793;27;106906;-69
2023/03/11 10:31:59;;;;;;;6.20;3.67;;;3.40;99.90;3.10;99491.00;;;;4969945;28;95972;-69
2023/03/11 10:34:49;;;;;;;5.00;3.97;;;3.40;99.90;3.10;99485.00;;;;4968637;28;88454;-71
2023/03/11 10:37:33;;;;;;;4.03;2.87;;;3.30;99.90;3.10;99500.00;;;;4962951;28;111094;-70
2023/03/11 10:40:28;;;;;;;5.70;3.23;;;3.30;99.90;3.20;99499.00;;;;4968902;28;107995;-70
2023/03/11 10:42:59;;;;;;;3.70;3.33;;;2.90;99.90;3.20;99500.00;;;;4930954;28;88671;-69
2023/03/11 10:45:36;;;;;;;4.43;2.97;;;3.40;99.90;3.30;99493.00;;;;4955227;28;87908;-70
2023/03/11 10:48:01;;;;;;;5.50;3.17;;;4.20;99.90;3.30;99496.00;;;;4986683;27;91291;-69
2023/03/11 10:50:27;;;;;;;5.13;3.77;;;3.60;99.90;3.40;99505.00;;;;4965686;28;117021;-69
2023/03/11 10:53:14;;;;;;;4.07;3.03;;;3.90;99.90;3.40;99503.00;;;;4968103;28;88089;-67
2023/03/11 10:55:50;;;;;;;5.20;3.63;;;3.60;99.90;3.50;99511.00;;;;4968976;28;87454;-67
2023/03/11 10:58:28;;;;;;;4.30;3.40;;;4.20;99.90;3.60;99508.00;;;;4968976;28;88159;-69
2023/03/11 11:01:16;;;;;;;2.53;2.07;;;3.80;99.90;3.60;99512.00;;;;4968794;28;88100;-73
2023/03/11 11:03:49;;;;;;;2.70;2.20;;;3.90;99.90;3.70;99510.00;;;;4980534;27;90237;-72
2023/03/11 11:06:34;;;;;;;4.17;3.03;;;3.80;99.90;3.70;99514.00;;;;4972375;28;88027;-71
2023/03/11 11:09:07;;;;;;;5.63;3.23;;;3.90;99.90;3.70;99523.00;;;;4967423;28;88554;-71
2023/03/11 11:11:39;;;;;;;3.23;2.53;;;3.80;99.90;3.70;99519.00;;;;4966380;28;88504;-71
2023/03/11 11:14:06;;;;;;;6.13;2.60;;;3.90;99.90;3.70;99525.00;;;;4967999;28;87756;-72
2023/03/11 11:16:33;;;;;;;2.37;1.93;;;3.80;99.90;3.60;99535.00;;;;4968919;28;87792;-71